sensor_id;sensor_type;location;lat;lon;timestamp;pressure;altitude;pressure_sealevel;temperature;humidity
12182;BME280;6154;51.550;12.138;2022-12-07T00:02:30;100380.69;;;7.72;64.82
12182;BME280;6154;51.550;12.138;2022-12-07T00:05:17;100385.38;;;7.66;64.87
12182;BME280;6154;51.550;12.138;2022-12-07T00:08:04;100377.78;;;7.58;64.78
12182;BME280;6154;51.550;12.138;2022-12-07T00:10:52;100381.69;;;7.49;65.03
12182;BME280;6154;51.550;12.138;2022-12-07T00:13:41;100375.47;;;7.50;65.15
12182;BME280;6154;51.550;12.138;2022-12-07T00:16:30;100371.97;;;7.52;65.05
12182;BME280;6154;51.550;12.138;2022-12-07T00:19:18;100372.84;;;7.50;65.01
12182;BME280;6154;51.550;12.138;2022-12-07T00:22:05;100372.06;;;7.48;65.03
12182;BME280;6154;51.550;12.138;2022-12-07T00:24:52;100366.03;;;7.46;64.90
12182;BME280;6154;51.550;12.138;2022-12-07T00:27:39;100368.12;;;7.38;64.72
12182;BME280;6154;51.550;12.138;2022-12-07T00:30:27;100363.91;;;7.34;64.68
12182;BME280;6154;51.550;12.138;2022-12-07T00:33:14;100362.22;;;7.33;64.69
12182;BME280;6154;51.550;12.138;2022-12-07T00:36:03;100356.09;;;7.33;64.79
12182;BME280;6154;51.550;12.138;2022-12-07T00:38:52;100356.34;;;7.27;64.74
12182;BME280;6154;51.550;12.138;2022-12-07T00:41:40;100351.09;;;7.27;64.71
12182;BME280;6154;51.550;12.138;2022-12-07T00:44:27;100351.94;;;7.27;64.74
12182;BME280;6154;51.550;12.138;2022-12-07T00:47:16;100348.44;;;7.27;64.75
12182;BME280;6154;51.550;12.138;2022-12-07T00:50:03;100339.84;;;7.23;64.79
12182;BME280;6154;51.550;12.138;2022-12-07T00:52:50;100338.25;;;7.19;64.78
12182;BME280;6154;51.550;12.138;2022-12-07T00:55:38;100333.13;;;7.16;64.89
12182;BME280;6154;51.550;12.138;2022-12-07T00:58:25;100333.25;;;7.13;65.03
12182;BME280;6154;51.550;12.138;2022-12-07T01:01:12;100323.75;;;7.09;65.25
12182;BME280;6154;51.550;12.138;2022-12-07T01:04:00;100321.13;;;7.09;65.27
12182;BME280;6154;51.550;12.138;2022-12-07T01:06:48;100326.47;;;7.07;65.40
12182;BME280;6154;51.550;12.138;2022-12-07T01:09:35;100320.28;;;7.08;65.34
12182;BME280;6154;51.550;12.138;2022-12-07T01:12:22;100318.72;;;7.04;65.32
12182;BME280;6154;51.550;12.138;2022-12-07T01:15:10;100321.53;;;7.00;65.43
12182;BME280;6154;51.550;12.138;2022-12-07T01:17:57;100324.28;;;6.97;65.59
12182;BME280;6154;51.550;12.138;2022-12-07T01:20:57;100322.59;;;6.96;65.61
12182;BME280;6154;51.550;12.138;2022-12-07T01:23:44;100312.22;;;6.91;65.88
12182;BME280;6154;51.550;12.138;2022-12-07T01:26:32;100309.75;;;6.88;65.89
12182;BME280;6154;51.550;12.138;2022-12-07T01:29:19;100311.53;;;6.87;65.73
12182;BME280;6154;51.550;12.138;2022-12-07T01:32:06;100313.38;;;6.85;65.68
12182;BME280;6154;51.550;12.138;2022-12-07T01:34:53;100304.69;;;6.83;65.61
12182;BME280;6154;51.550;12.138;2022-12-07T01:37:42;100316.13;;;6.82;65.61
12182;BME280;6154;51.550;12.138;2022-12-07T01:40:29;100308.47;;;6.76;65.76
12182;BME280;6154;51.550;12.138;2022-12-07T01:43:17;100302.50;;;6.73;65.87
12182;BME280;6154;51.550;12.138;2022-12-07T01:46:06;100295.53;;;6.72;65.83
12182;BME280;6154;51.550;12.138;2022-12-07T01:48:53;100285.19;;;6.67;65.90
12182;BME280;6154;51.550;12.138;2022-12-07T01:51:41;100292.22;;;6.67;65.94
12182;BME280;6154;51.550;12.138;2022-12-07T01:54:32;100289.66;;;6.65;65.88
12182;BME280;6154;51.550;12.138;2022-12-07T01:57:20;100281.84;;;6.63;65.96
12182;BME280;6154;51.550;12.138;2022-12-07T02:00:09;100281.00;;;6.63;65.95
12182;BME280;6154;51.550;12.138;2022-12-07T02:03:03;100280.06;;;6.64;65.86
12182;BME280;6154;51.550;12.138;2022-12-07T02:05:52;100280.25;;;6.59;65.95
12182;BME280;6154;51.550;12.138;2022-12-07T02:08:41;100275.81;;;6.61;65.98
12182;BME280;6154;51.550;12.138;2022-12-07T02:11:30;100272.28;;;6.61;66.00
12182;BME280;6154;51.550;12.138;2022-12-07T02:14:17;100269.66;;;6.61;66.03
12182;BME280;6154;51.550;12.138;2022-12-07T02:17:10;100269.16;;;6.53;66.05
12182;BME280;6154;51.550;12.138;2022-12-07T02:20:14;100264.91;;;6.49;66.30
12182;BME280;6154;51.550;12.138;2022-12-07T02:23:23;100268.41;;;6.49;66.51
12182;BME280;6154;51.550;12.138;2022-12-07T02:26:41;100257.03;;;6.49;66.76
12182;BME280;6154;51.550;12.138;2022-12-07T02:29:35;100259.50;;;6.53;66.70
12182;BME280;6154;51.550;12.138;2022-12-07T02:32:28;100247.97;;;6.56;66.54
12182;BME280;6154;51.550;12.138;2022-12-07T02:35:25;100252.25;;;6.58;66.42
12182;BME280;6154;51.550;12.138;2022-12-07T02:38:18;100249.44;;;6.63;66.30
12182;BME280;6154;51.550;12.138;2022-12-07T02:41:11;100244.91;;;6.67;66.17
12182;BME280;6154;51.550;12.138;2022-12-07T02:44:01;100228.91;;;6.71;66.10
12182;BME280;6154;51.550;12.138;2022-12-07T02:46:54;100236.81;;;6.71;66.08
12182;BME280;6154;51.550;12.138;2022-12-07T02:49:42;100226.25;;;6.73;66.10
12182;BME280;6154;51.550;12.138;2022-12-07T02:52:30;100218.38;;;6.73;66.12
12182;BME280;6154;51.550;12.138;2022-12-07T02:55:19;100221.84;;;6.73;66.06
12182;BME280;6154;51.550;12.138;2022-12-07T02:58:18;100217.44;;;6.74;66.17
12182;BME280;6154;51.550;12.138;2022-12-07T03:01:13;100212.97;;;6.76;66.15
12182;BME280;6154;51.550;12.138;2022-12-07T03:04:13;100205.94;;;6.76;66.23
12182;BME280;6154;51.550;12.138;2022-12-07T03:07:08;100205.84;;;6.78;66.30
12182;BME280;6154;51.550;12.138;2022-12-07T03:10:01;100203.09;;;6.81;66.20
12182;BME280;6154;51.550;12.138;2022-12-07T03:12:57;100203.03;;;6.82;66.20
12182;BME280;6154;51.550;12.138;2022-12-07T03:15:54;100209.19;;;6.81;66.24
12182;BME280;6154;51.550;12.138;2022-12-07T03:18:46;100217.09;;;6.81;66.36
12182;BME280;6154;51.550;12.138;2022-12-07T03:21:39;100215.12;;;6.86;66.41
12182;BME280;6154;51.550;12.138;2022-12-07T03:24:36;100216.84;;;6.87;66.26
12182;BME280;6154;51.550;12.138;2022-12-07T03:27:25;100210.41;;;6.95;66.33
12182;BME280;6154;51.550;12.138;2022-12-07T03:30:17;100216.59;;;6.94;66.02
12182;BME280;6154;51.550;12.138;2022-12-07T03:33:08;100209.25;;;7.00;65.99
12182;BME280;6154;51.550;12.138;2022-12-07T03:36:01;100206.59;;;7.02;66.16
12182;BME280;6154;51.550;12.138;2022-12-07T03:38:55;100205.66;;;7.03;65.98
12182;BME280;6154;51.550;12.138;2022-12-07T03:41:44;100204.00;;;7.00;66.18
12182;BME280;6154;51.550;12.138;2022-12-07T03:44:32;100207.22;;;7.07;66.09
12182;BME280;6154;51.550;12.138;2022-12-07T03:47:26;100194.84;;;7.09;66.13
12182;BME280;6154;51.550;12.138;2022-12-07T03:50:21;100192.87;;;7.14;66.14
12182;BME280;6154;51.550;12.138;2022-12-07T03:53:16;100186.53;;;7.18;66.19
12182;BME280;6154;51.550;12.138;2022-12-07T03:56:08;100186.69;;;7.15;66.17
12182;BME280;6154;51.550;12.138;2022-12-07T03:58:56;100176.94;;;7.17;66.15
12182;BME280;6154;51.550;12.138;2022-12-07T04:01:43;100172.47;;;7.19;66.23
12182;BME280;6154;51.550;12.138;2022-12-07T04:04:31;100169.72;;;7.22;66.06
12182;BME280;6154;51.550;12.138;2022-12-07T04:07:17;100158.34;;;7.22;66.20
12182;BME280;6154;51.550;12.138;2022-12-07T04:10:05;100160.03;;;7.23;66.25
12182;BME280;6154;51.550;12.138;2022-12-07T04:12:54;100160.75;;;7.26;66.18
12182;BME280;6154;51.550;12.138;2022-12-07T04:15:40;100156.34;;;7.27;66.04
12182;BME280;6154;51.550;12.138;2022-12-07T04:18:27;100157.03;;;7.30;66.03
12182;BME280;6154;51.550;12.138;2022-12-07T04:21:15;100149.09;;;7.32;66.10
12182;BME280;6154;51.550;12.138;2022-12-07T04:24:01;100153.34;;;7.34;66.13
12182;BME280;6154;51.550;12.138;2022-12-07T04:26:49;100134.16;;;7.32;66.17
12182;BME280;6154;51.550;12.138;2022-12-07T04:29:37;100138.34;;;7.36;66.34
12182;BME280;6154;51.550;12.138;2022-12-07T04:32:24;100135.47;;;7.41;66.12
12182;BME280;6154;51.550;12.138;2022-12-07T04:35:11;100134.00;;;7.35;66.21
12182;BME280;6154;51.550;12.138;2022-12-07T04:37:58;100131.87;;;7.43;66.14
12182;BME280;6154;51.550;12.138;2022-12-07T04:40:45;100133.50;;;7.46;65.99
12182;BME280;6154;51.550;12.138;2022-12-07T04:43:36;100128.16;;;7.47;66.22
12182;BME280;6154;51.550;12.138;2022-12-07T04:46:26;100136.84;;;7.49;66.17
12182;BME280;6154;51.550;12.138;2022-12-07T04:49:22;100133.06;;;7.55;66.21
12182;BME280;6154;51.550;12.138;2022-12-07T04:52:13;100135.63;;;7.57;66.36
12182;BME280;6154;51.550;12.138;2022-12-07T04:55:00;100131.13;;;7.59;66.29
12182;BME280;6154;51.550;12.138;2022-12-07T04:57:47;100139.34;;;7.53;66.72
12182;BME280;6154;51.550;12.138;2022-12-07T05:00:35;100132.28;;;7.53;67.02
12182;BME280;6154;51.550;12.138;2022-12-07T05:03:23;100134.53;;;7.61;66.66
12182;BME280;6154;51.550;12.138;2022-12-07T05:06:11;100136.28;;;7.62;66.66
12182;BME280;6154;51.550;12.138;2022-12-07T05:08:58;100130.09;;;7.63;66.95
12182;BME280;6154;51.550;12.138;2022-12-07T05:11:45;100131.13;;;7.59;67.29
12182;BME280;6154;51.550;12.138;2022-12-07T05:14:32;100130.94;;;7.63;67.23
12182;BME280;6154;51.550;12.138;2022-12-07T05:17:19;100122.59;;;7.72;66.80
12182;BME280;6154;51.550;12.138;2022-12-07T05:20:08;100133.25;;;7.69;66.89
12182;BME280;6154;51.550;12.138;2022-12-07T05:22:55;100136.81;;;7.68;67.13
12182;BME280;6154;51.550;12.138;2022-12-07T05:25:44;100127.28;;;7.66;67.35
12182;BME280;6154;51.550;12.138;2022-12-07T05:28:31;100121.75;;;7.72;67.19
12182;BME280;6154;51.550;12.138;2022-12-07T05:31:18;100124.22;;;7.75;66.96
12182;BME280;6154;51.550;12.138;2022-12-07T05:34:06;100123.28;;;7.76;67.07
12182;BME280;6154;51.550;12.138;2022-12-07T05:36:54;100127.38;;;7.64;67.50
12182;BME280;6154;51.550;12.138;2022-12-07T05:39:41;100131.34;;;7.73;67.72
12182;BME280;6154;51.550;12.138;2022-12-07T05:42:28;100122.06;;;7.83;67.32
12182;BME280;6154;51.550;12.138;2022-12-07T05:45:15;100128.28;;;7.82;67.39
12182;BME280;6154;51.550;12.138;2022-12-07T05:48:03;100123.00;;;7.82;67.48
12182;BME280;6154;51.550;12.138;2022-12-07T05:50:50;100122.28;;;7.78;67.60
12182;BME280;6154;51.550;12.138;2022-12-07T05:53:39;100127.63;;;7.77;67.77
12182;BME280;6154;51.550;12.138;2022-12-07T05:56:26;100112.31;;;7.85;67.22
12182;BME280;6154;51.550;12.138;2022-12-07T05:59:13;100119.88;;;7.74;67.38
12182;BME280;6154;51.550;12.138;2022-12-07T06:02:11;100109.19;;;7.77;67.06
12182;BME280;6154;51.550;12.138;2022-12-07T06:04:58;100104.38;;;7.68;67.09
12182;BME280;6154;51.550;12.138;2022-12-07T06:07:45;100109.47;;;7.71;67.01
12182;BME280;6154;51.550;12.138;2022-12-07T06:10:33;100102.09;;;7.60;67.25
12182;BME280;6154;51.550;12.138;2022-12-07T06:13:20;100097.56;;;7.64;67.08
12182;BME280;6154;51.550;12.138;2022-12-07T06:16:07;100098.31;;;7.66;66.92
12182;BME280;6154;51.550;12.138;2022-12-07T06:18:54;100101.97;;;7.63;66.80
12182;BME280;6154;51.550;12.138;2022-12-07T06:21:41;100108.22;;;7.61;67.44
12182;BME280;6154;51.550;12.138;2022-12-07T06:24:28;100107.31;;;7.62;67.64
12182;BME280;6154;51.550;12.138;2022-12-07T06:27:17;100102.53;;;7.51;67.88
12182;BME280;6154;51.550;12.138;2022-12-07T06:30:05;100099.88;;;7.70;67.50
12182;BME280;6154;51.550;12.138;2022-12-07T06:32:54;100102.47;;;7.53;68.03
12182;BME280;6154;51.550;12.138;2022-12-07T06:35:41;100108.69;;;7.69;67.89
12182;BME280;6154;51.550;12.138;2022-12-07T06:38:29;100109.53;;;7.52;68.29
12182;BME280;6154;51.550;12.138;2022-12-07T06:41:15;100108.84;;;7.66;68.39
12182;BME280;6154;51.550;12.138;2022-12-07T06:44:04;100100.34;;;7.78;67.80
12182;BME280;6154;51.550;12.138;2022-12-07T06:46:52;100103.56;;;7.85;67.41
12182;BME280;6154;51.550;12.138;2022-12-07T06:49:59;100112.50;;;7.81;67.82
12182;BME280;6154;51.550;12.138;2022-12-07T06:52:47;100120.81;;;7.90;67.65
12182;BME280;6154;51.550;12.138;2022-12-07T06:55:34;100122.69;;;7.88;67.96
12182;BME280;6154;51.550;12.138;2022-12-07T06:58:21;100114.53;;;7.75;68.70
12182;BME280;6154;51.550;12.138;2022-12-07T07:01:10;100116.72;;;7.85;68.49
12182;BME280;6154;51.550;12.138;2022-12-07T07:03:58;100111.78;;;7.96;67.87
12182;BME280;6154;51.550;12.138;2022-12-07T07:06:45;100112.31;;;7.85;67.97
12182;BME280;6154;51.550;12.138;2022-12-07T07:09:32;100120.03;;;7.88;68.04
12182;BME280;6154;51.550;12.138;2022-12-07T07:12:20;100124.94;;;7.96;67.69
12182;BME280;6154;51.550;12.138;2022-12-07T07:15:07;100125.81;;;7.96;67.46
12182;BME280;6154;51.550;12.138;2022-12-07T07:17:56;100122.84;;;7.85;67.45
12182;BME280;6154;51.550;12.138;2022-12-07T07:20:50;100123.62;;;7.87;67.68
12182;BME280;6154;51.550;12.138;2022-12-07T07:23:37;100119.75;;;7.94;67.12
12182;BME280;6154;51.550;12.138;2022-12-07T07:26:24;100125.88;;;7.95;66.83
12182;BME280;6154;51.550;12.138;2022-12-07T07:29:12;100127.94;;;7.88;66.70
12182;BME280;6154;51.550;12.138;2022-12-07T07:32:01;100129.31;;;7.78;67.01
12182;BME280;6154;51.550;12.138;2022-12-07T07:34:56;100125.47;;;7.85;66.76
12182;BME280;6154;51.550;12.138;2022-12-07T07:37:43;100132.28;;;7.89;66.81
12182;BME280;6154;51.550;12.138;2022-12-07T07:40:30;100133.22;;;7.88;66.90
12182;BME280;6154;51.550;12.138;2022-12-07T07:43:17;100137.53;;;7.72;67.40
12182;BME280;6154;51.550;12.138;2022-12-07T07:46:06;100134.38;;;7.83;67.72
12182;BME280;6154;51.550;12.138;2022-12-07T07:48:53;100132.78;;;7.97;67.24
12182;BME280;6154;51.550;12.138;2022-12-07T07:51:41;100134.91;;;7.89;67.33
12182;BME280;6154;51.550;12.138;2022-12-07T07:54:29;100133.62;;;7.98;67.24
12182;BME280;6154;51.550;12.138;2022-12-07T07:57:16;100141.31;;;8.02;66.93
12182;BME280;6154;51.550;12.138;2022-12-07T08:00:06;100138.59;;;8.04;66.74
12182;BME280;6154;51.550;12.138;2022-12-07T08:02:57;100139.13;;;8.11;66.57
12182;BME280;6154;51.550;12.138;2022-12-07T08:05:45;100135.72;;;8.08;66.56
12182;BME280;6154;51.550;12.138;2022-12-07T08:08:33;100141.63;;;8.14;66.45
12182;BME280;6154;51.550;12.138;2022-12-07T08:11:20;100141.31;;;8.02;66.58
12182;BME280;6154;51.550;12.138;2022-12-07T08:14:07;100139.00;;;8.14;66.48
12182;BME280;6154;51.550;12.138;2022-12-07T08:16:54;100144.12;;;8.17;66.49
12182;BME280;6154;51.550;12.138;2022-12-07T08:19:41;100133.41;;;8.20;66.52
12182;BME280;6154;51.550;12.138;2022-12-07T08:22:30;100140.38;;;8.21;66.60
12182;BME280;6154;51.550;12.138;2022-12-07T08:25:22;100146.59;;;8.20;66.86
12182;BME280;6154;51.550;12.138;2022-12-07T08:28:10;100145.31;;;8.46;66.73
12182;BME280;6154;51.550;12.138;2022-12-07T08:30:59;100138.84;;;8.69;66.68
12182;BME280;6154;51.550;12.138;2022-12-07T08:33:47;100137.91;;;8.70;66.90
12182;BME280;6154;51.550;12.138;2022-12-07T08:36:35;100143.94;;;8.89;66.62
12182;BME280;6154;51.550;12.138;2022-12-07T08:39:22;100153.91;;;8.84;66.47
12182;BME280;6154;51.550;12.138;2022-12-07T08:42:18;100154.41;;;8.90;66.54
12182;BME280;6154;51.550;12.138;2022-12-07T08:45:09;100157.09;;;8.56;66.61
12182;BME280;6154;51.550;12.138;2022-12-07T08:48:00;100158.34;;;8.66;66.92
12182;BME280;6154;51.550;12.138;2022-12-07T08:50:48;100161.44;;;8.57;66.75
12182;BME280;6154;51.550;12.138;2022-12-07T08:53:36;100164.94;;;8.57;66.84
12182;BME280;6154;51.550;12.138;2022-12-07T08:56:24;100164.16;;;8.73;66.95
12182;BME280;6154;51.550;12.138;2022-12-07T08:59:15;100158.25;;;8.85;66.92
12182;BME280;6154;51.550;12.138;2022-12-07T09:02:02;100166.44;;;8.96;66.85
12182;BME280;6154;51.550;12.138;2022-12-07T09:04:49;100161.94;;;8.81;66.78
12182;BME280;6154;51.550;12.138;2022-12-07T09:07:37;100159.75;;;9.06;66.69
12182;BME280;6154;51.550;12.138;2022-12-07T09:10:26;100161.75;;;9.01;66.80
12182;BME280;6154;51.550;12.138;2022-12-07T09:13:13;100166.41;;;9.13;66.74
12182;BME280;6154;51.550;12.138;2022-12-07T09:16:02;100161.84;;;9.00;66.97
12182;BME280;6154;51.550;12.138;2022-12-07T09:18:50;100157.22;;;9.20;66.45
12182;BME280;6154;51.550;12.138;2022-12-07T09:21:39;100157.34;;;9.35;66.23
12182;BME280;6154;51.550;12.138;2022-12-07T09:24:27;100152.81;;;9.37;66.22
12182;BME280;6154;51.550;12.138;2022-12-07T09:27:13;100153.56;;;9.39;66.74
12182;BME280;6154;51.550;12.138;2022-12-07T09:30:03;100156.38;;;9.51;66.53
12182;BME280;6154;51.550;12.138;2022-12-07T09:32:54;100155.03;;;9.60;66.26
12182;BME280;6154;51.550;12.138;2022-12-07T09:35:44;100158.63;;;9.59;66.19
12182;BME280;6154;51.550;12.138;2022-12-07T09:38:31;100148.56;;;9.66;66.00
12182;BME280;6154;51.550;12.138;2022-12-07T09:41:19;100144.31;;;9.63;66.07
12182;BME280;6154;51.550;12.138;2022-12-07T09:44:11;100140.22;;;9.58;66.67
12182;BME280;6154;51.550;12.138;2022-12-07T09:46:59;100144.91;;;9.53;66.71
12182;BME280;6154;51.550;12.138;2022-12-07T09:49:47;100144.66;;;9.57;66.64
12182;BME280;6154;51.550;12.138;2022-12-07T09:52:35;100141.47;;;9.50;66.91
12182;BME280;6154;51.550;12.138;2022-12-07T09:55:26;100148.56;;;9.50;67.03
12182;BME280;6154;51.550;12.138;2022-12-07T09:58:20;100149.75;;;9.60;66.67
12182;BME280;6154;51.550;12.138;2022-12-07T10:01:12;100153.16;;;9.78;66.56
12182;BME280;6154;51.550;12.138;2022-12-07T10:04:05;100149.94;;;9.73;66.44
12182;BME280;6154;51.550;12.138;2022-12-07T10:06:57;100141.06;;;9.74;66.87
12182;BME280;6154;51.550;12.138;2022-12-07T10:09:44;100142.16;;;9.86;66.79
12182;BME280;6154;51.550;12.138;2022-12-07T10:12:56;100145.37;;;9.91;66.88
12182;BME280;6154;51.550;12.138;2022-12-07T10:15:46;100135.94;;;9.87;66.60
12182;BME280;6154;51.550;12.138;2022-12-07T10:18:37;100132.44;;;9.86;67.09
12182;BME280;6154;51.550;12.138;2022-12-07T10:21:27;100135.03;;;10.02;66.77
12182;BME280;6154;51.550;12.138;2022-12-07T10:24:15;100129.63;;;9.89;66.80
12182;BME280;6154;51.550;12.138;2022-12-07T10:27:02;100130.09;;;10.12;66.52
12182;BME280;6154;51.550;12.138;2022-12-07T10:29:51;100124.53;;;10.16;66.38
12182;BME280;6154;51.550;12.138;2022-12-07T10:32:39;100126.72;;;9.94;66.45
12182;BME280;6154;51.550;12.138;2022-12-07T10:35:27;100119.47;;;9.97;66.48
12182;BME280;6154;51.550;12.138;2022-12-07T10:38:16;100124.13;;;10.08;66.55
12182;BME280;6154;51.550;12.138;2022-12-07T10:41:06;100117.19;;;10.21;66.30
12182;BME280;6154;51.550;12.138;2022-12-07T10:43:56;100121.41;;;10.09;66.37
12182;BME280;6154;51.550;12.138;2022-12-07T10:46:56;100124.91;;;10.26;66.05
12182;BME280;6154;51.550;12.138;2022-12-07T10:50:14;100120.56;;;10.39;65.80
12182;BME280;6154;51.550;12.138;2022-12-07T10:53:22;100119.56;;;10.56;65.69
12182;BME280;6154;51.550;12.138;2022-12-07T10:56:36;100114.63;;;10.35;65.01
12182;BME280;6154;51.550;12.138;2022-12-07T10:59:42;100116.84;;;10.57;65.50
12182;BME280;6154;51.550;12.138;2022-12-07T11:02:54;100112.00;;;10.50;65.23
12182;BME280;6154;51.550;12.138;2022-12-07T11:05:53;100104.16;;;10.48;65.12
12182;BME280;6154;51.550;12.138;2022-12-07T11:08:51;100109.59;;;10.89;64.89
12182;BME280;6154;51.550;12.138;2022-12-07T11:11:50;100109.75;;;10.72;63.90
12182;BME280;6154;51.550;12.138;2022-12-07T11:14:44;100107.41;;;10.82;64.04
12182;BME280;6154;51.550;12.138;2022-12-07T11:17:44;100108.84;;;10.73;64.25
12182;BME280;6154;51.550;12.138;2022-12-07T11:20:43;100105.16;;;10.76;63.67
12182;BME280;6154;51.550;12.138;2022-12-07T11:23:42;100108.25;;;10.54;63.50
12182;BME280;6154;51.550;12.138;2022-12-07T11:26:50;100100.66;;;10.62;63.96
12182;BME280;6154;51.550;12.138;2022-12-07T11:29:50;100105.59;;;10.54;64.13
12182;BME280;6154;51.550;12.138;2022-12-07T11:32:49;100101.19;;;10.24;64.43
12182;BME280;6154;51.550;12.138;2022-12-07T11:35:46;100101.81;;;10.44;63.85
12182;BME280;6154;51.550;12.138;2022-12-07T11:38:40;100098.97;;;10.61;64.20
12182;BME280;6154;51.550;12.138;2022-12-07T11:41:32;100100.41;;;10.52;64.29
12182;BME280;6154;51.550;12.138;2022-12-07T11:44:27;100093.03;;;10.72;64.17
12182;BME280;6154;51.550;12.138;2022-12-07T11:47:21;100108.91;;;10.57;63.37
12182;BME280;6154;51.550;12.138;2022-12-07T11:50:24;100098.94;;;10.32;63.19
12182;BME280;6154;51.550;12.138;2022-12-07T11:53:16;100103.44;;;10.89;63.72
12182;BME280;6154;51.550;12.138;2022-12-07T11:56:09;100100.97;;;10.72;63.29
12182;BME280;6154;51.550;12.138;2022-12-07T11:59:00;100093.41;;;10.80;63.39
12182;BME280;6154;51.550;12.138;2022-12-07T12:01:53;100100.50;;;10.65;62.79
12182;BME280;6154;51.550;12.138;2022-12-07T12:04:50;100092.19;;;10.85;62.65
12182;BME280;6154;51.550;12.138;2022-12-07T12:07:41;100091.72;;;10.79;62.81
12182;BME280;6154;51.550;12.138;2022-12-07T12:10:55;100088.03;;;10.67;62.94
12182;BME280;6154;51.550;12.138;2022-12-07T12:14:10;100087.94;;;10.54;62.37
12182;BME280;6154;51.550;12.138;2022-12-07T12:20:48;100083.97;;;10.90;63.05
12182;BME280;6154;51.550;12.138;2022-12-07T12:24:15;100085.19;;;10.99;63.00
12182;BME280;6154;51.550;12.138;2022-12-07T12:27:06;100085.00;;;10.87;62.64
12182;BME280;6154;51.550;12.138;2022-12-07T12:29:57;100081.41;;;11.03;62.70
12182;BME280;6154;51.550;12.138;2022-12-07T12:32:47;100079.53;;;11.05;62.80
12182;BME280;6154;51.550;12.138;2022-12-07T12:36:20;100075.38;;;10.86;62.77
12182;BME280;6154;51.550;12.138;2022-12-07T12:39:26;100078.94;;;11.00;61.99
12182;BME280;6154;51.550;12.138;2022-12-07T12:42:51;100067.03;;;11.07;62.83
12182;BME280;6154;51.550;12.138;2022-12-07T12:46:36;100058.88;;;11.10;62.74
12182;BME280;6154;51.550;12.138;2022-12-07T12:53:20;100056.72;;;11.02;62.62
12182;BME280;6154;51.550;12.138;2022-12-07T12:56:35;100055.03;;;10.87;62.70
12182;BME280;6154;51.550;12.138;2022-12-07T12:59:56;100056.66;;;11.04;62.86
12182;BME280;6154;51.550;12.138;2022-12-07T13:03:04;100056.63;;;10.89;61.98
12182;BME280;6154;51.550;12.138;2022-12-07T13:06:20;100059.28;;;11.04;62.43
12182;BME280;6154;51.550;12.138;2022-12-07T13:09:19;100060.16;;;10.76;61.73
12182;BME280;6154;51.550;12.138;2022-12-07T13:12:12;100060.69;;;10.81;62.05
12182;BME280;6154;51.550;12.138;2022-12-07T13:15:00;100053.53;;;10.97;62.71
12182;BME280;6154;51.550;12.138;2022-12-07T13:18:01;100060.41;;;10.71;61.72
12182;BME280;6154;51.550;12.138;2022-12-07T13:20:50;100060.44;;;10.85;62.05
12182;BME280;6154;51.550;12.138;2022-12-07T13:23:39;100062.50;;;10.80;62.24
12182;BME280;6154;51.550;12.138;2022-12-07T13:26:42;100054.00;;;10.89;62.17
12182;BME280;6154;51.550;12.138;2022-12-07T13:29:36;100052.00;;;10.79;62.28
12182;BME280;6154;51.550;12.138;2022-12-07T13:32:25;100045.13;;;10.76;62.39
12182;BME280;6154;51.550;12.138;2022-12-07T13:35:31;100044.84;;;10.67;62.05
12182;BME280;6154;51.550;12.138;2022-12-07T13:38:25;100043.87;;;10.82;62.20
12182;BME280;6154;51.550;12.138;2022-12-07T13:41:15;100045.97;;;10.48;62.27
12182;BME280;6154;51.550;12.138;2022-12-07T13:44:09;100048.13;;;10.70;62.36
12182;BME280;6154;51.550;12.138;2022-12-07T13:47:05;100048.44;;;10.65;61.81
12182;BME280;6154;51.550;12.138;2022-12-07T13:49:55;100048.22;;;10.69;62.06
12182;BME280;6154;51.550;12.138;2022-12-07T13:52:44;100052.38;;;10.58;62.17
12182;BME280;6154;51.550;12.138;2022-12-07T13:55:32;100050.56;;;10.30;61.69
12182;BME280;6154;51.550;12.138;2022-12-07T13:58:19;100056.34;;;10.51;61.90
12182;BME280;6154;51.550;12.138;2022-12-07T14:01:08;100048.34;;;10.67;61.87
12182;BME280;6154;51.550;12.138;2022-12-07T14:03:55;100056.72;;;10.45;61.87
12182;BME280;6154;51.550;12.138;2022-12-07T14:06:48;100052.03;;;10.20;62.07
12182;BME280;6154;51.550;12.138;2022-12-07T14:09:35;100060.28;;;10.30;62.29
12182;BME280;6154;51.550;12.138;2022-12-07T14:12:23;100059.19;;;10.34;61.95
12182;BME280;6154;51.550;12.138;2022-12-07T14:15:20;100055.47;;;10.22;62.20
12182;BME280;6154;51.550;12.138;2022-12-07T14:18:26;100051.69;;;9.96;62.16
12182;BME280;6154;51.550;12.138;2022-12-07T14:21:16;100058.16;;;10.21;62.22
12182;BME280;6154;51.550;12.138;2022-12-07T14:24:15;100055.84;;;10.00;63.29
12182;BME280;6154;51.550;12.138;2022-12-07T14:27:03;100057.31;;;10.20;62.63
12182;BME280;6154;51.550;12.138;2022-12-07T14:29:52;100048.19;;;10.26;62.72
12182;BME280;6154;51.550;12.138;2022-12-07T14:32:39;100053.06;;;10.18;62.60
12182;BME280;6154;51.550;12.138;2022-12-07T14:35:31;100046.50;;;9.95;62.45
12182;BME280;6154;51.550;12.138;2022-12-07T14:38:18;100056.84;;;10.14;62.54
12182;BME280;6154;51.550;12.138;2022-12-07T14:41:12;100047.53;;;10.22;62.67
12182;BME280;6154;51.550;12.138;2022-12-07T14:44:26;100051.88;;;10.23;62.62
12182;BME280;6154;51.550;12.138;2022-12-07T14:47:20;100048.81;;;10.15;62.77
12182;BME280;6154;51.550;12.138;2022-12-07T14:50:27;100054.94;;;10.16;62.86
12182;BME280;6154;51.550;12.138;2022-12-07T14:53:17;100056.66;;;10.17;62.86
12182;BME280;6154;51.550;12.138;2022-12-07T14:56:10;100053.47;;;9.96;62.60
12182;BME280;6154;51.550;12.138;2022-12-07T14:58:57;100046.66;;;9.92;63.06
12182;BME280;6154;51.550;12.138;2022-12-07T15:01:44;100052.88;;;9.91;62.91
12182;BME280;6154;51.550;12.138;2022-12-07T15:04:31;100040.19;;;9.82;63.07
12182;BME280;6154;51.550;12.138;2022-12-07T15:07:20;100046.19;;;9.85;62.97
12182;BME280;6154;51.550;12.138;2022-12-07T15:10:15;100048.06;;;9.83;62.82
12182;BME280;6154;51.550;12.138;2022-12-07T15:13:08;100052.38;;;9.54;62.98
12182;BME280;6154;51.550;12.138;2022-12-07T15:16:21;100046.19;;;9.69;63.29